Time;durP1;ratioP1;P1;durP2;ratioP2;P2;SDS_P1;SDS_P2;PMS_P1;PMS_P2;Temp;Humidity;BMP_temperature;BMP_pressure;BME280_temperature;BME280_humidity;BME280_pressure;Samples;Min_cycle;Max_cycle;Signal;HPM_P1;HPM_P2
2023/08/24 00:02:22;;;;;;;0.52;0.52;;;22.60;99.90;;;;;;5081372;28;20058;-77
2023/08/24 00:04:48;;;;;;;0.60;0.60;;;;;;;;;;5081603;28;20115;-79
2023/08/24 00:07:14;;;;;;;0.35;0.35;;;22.50;99.90;;;;;;5082900;28;20020;-75
2023/08/24 00:09:40;;;;;;;0.38;0.38;;;22.50;99.90;;;;;;5083214;28;20028;-76
2023/08/24 00:12:07;;;;;;;0.10;0.10;;;22.40;99.90;;;;;;5081561;28;20031;-81
2023/08/24 00:14:33;;;;;;;0.52;0.52;;;22.10;99.90;;;;;;5081474;28;20654;-76
2023/08/24 00:16:59;;;;;;;0.10;0.10;;;21.80;99.90;;;;;;5063977;28;20044;-77
2023/08/24 00:19:25;;;;;;;0.30;0.30;;;22.00;99.90;;;;;;5063750;28;20085;-77
2023/08/24 00:21:52;;;;;;;0.50;0.50;;;21.10;99.90;;;;;;5081840;28;20101;-79
2023/08/24 00:24:19;;;;;;;0.20;0.20;;;21.30;99.90;;;;;;5082130;28;20020;-83
2023/08/24 00:26:45;;;;;;;0.00;0.00;;;21.00;99.90;;;;;;5081505;28;20042;-82
2023/08/24 00:29:12;;;;;;;0.10;0.10;;;20.90;99.90;;;;;;5079647;28;20016;-78
2023/08/24 00:31:41;;;;;;;0.10;0.10;;;21.00;99.90;;;;;;5081719;28;20017;-77
2023/08/24 00:34:07;;;;;;;1.25;1.17;;;18.90;99.90;;;;;;5063228;28;20020;-76
2023/08/24 00:36:33;;;;;;;0.90;0.90;;;21.40;99.90;;;;;;5063546;28;20056;-78
2023/08/24 00:38:59;;;;;;;0.10;0.10;;;21.40;99.90;;;;;;5081883;28;20016;-77
2023/08/24 00:41:27;;;;;;;0.10;0.10;;;21.00;99.90;;;;;;5061765;28;20611;-78
2023/08/24 00:43:53;;;;;;;1.98;1.55;;;21.00;99.90;;;;;;5080272;28;20301;-77
2023/08/24 00:46:22;;;;;;;0.43;0.43;;;21.00;99.90;;;;;;5080477;28;20505;-79
2023/08/24 00:48:49;;;;;;;0.98;0.80;;;20.80;99.90;;;;;;5079609;28;20017;-76
2023/08/24 00:51:15;;;;;;;0.10;0.10;;;20.90;99.90;;;;;;5080631;28;20047;-76
2023/08/24 00:53:41;;;;;;;0.00;0.00;;;20.80;99.90;;;;;;5080414;28;20009;-76
2023/08/24 00:56:08;;;;;;;0.20;0.20;;;20.90;99.90;;;;;;5080392;28;20484;-76
2023/08/24 00:58:34;;;;;;;0.28;0.28;;;20.80;99.90;;;;;;5080794;28;20052;-83
2023/08/24 01:01:01;;;;;;;0.10;0.10;;;22.00;99.90;;;;;;5081669;28;20021;-76
2023/08/24 01:03:27;;;;;;;0.10;0.10;;;20.60;99.90;;;;;;5080818;28;20319;-76
2023/08/24 01:05:53;;;;;;;0.10;0.10;;;20.50;99.90;;;;;;5081047;28;20020;-76
2023/08/24 01:08:21;;;;;;;0.10;0.10;;;20.50;99.90;;;;;;5063293;28;20027;-76
2023/08/24 01:11:12;;;;;;;0.10;0.10;;;17.40;99.90;;;;;;5081087;28;20221;-75
2023/08/24 01:14:04;;;;;;;0.10;0.10;;;20.60;99.90;;;;;;5063458;28;20526;-78
2023/08/24 01:16:40;;;;;;;0.38;0.35;;;20.50;99.90;;;;;;5080060;28;20721;-79
2023/08/24 01:19:15;;;;;;;0.77;0.77;;;23.10;99.90;;;;;;5080885;28;20204;-81
2023/08/24 01:21:42;;;;;;;0.65;0.63;;;20.30;99.90;;;;;;5065364;28;20023;-79
2023/08/24 01:24:14;;;;;;;0.10;0.10;;;20.30;99.90;;;;;;5085505;28;20074;-81
2023/08/24 01:26:41;;;;;;;0.20;0.20;;;20.40;99.90;;;;;;5085295;28;20043;-79
2023/08/24 01:29:08;;;;;;;0.32;0.32;;;20.70;99.90;;;;;;5066376;28;20521;-75
2023/08/24 01:31:35;;;;;;;0.13;0.13;;;20.90;99.90;;;;;;5085559;28;20352;-77
2023/08/24 01:34:01;;;;;;;0.38;0.38;;;21.00;99.90;;;;;;5084873;28;20596;-76
2023/08/24 01:36:30;;;;;;;0.10;0.10;;;20.60;99.90;;;;;;5067538;28;20131;-78
2023/08/24 01:39:15;;;;;;;0.43;0.35;;;20.80;99.90;;;;;;5083831;28;20120;-78
2023/08/24 01:41:46;;;;;;;0.13;0.13;;;21.00;99.90;;;;;;5084883;28;20585;-85
2023/08/24 01:44:16;;;;;;;0.55;0.55;;;20.80;99.90;;;;;;5084614;28;20514;-76
2023/08/24 01:46:45;;;;;;;1.02;1.00;;;21.30;99.90;;;;;;5084324;28;20020;-74
2023/08/24 01:49:14;;;;;;;0.52;0.52;;;20.40;99.90;;;;;;5083289;28;20028;-80
2023/08/24 01:51:45;;;;;;;0.10;0.10;;;20.90;99.90;;;;;;5066656;28;20016;-78
2023/08/24 01:54:12;;;;;;;6.35;3.58;;;17.80;99.90;;;;;;5084517;28;20085;-77
2023/08/24 01:56:38;;;;;;;0.15;0.15;;;20.60;99.90;;;;;;5084072;28;20712;-80
2023/08/24 01:59:05;;;;;;;0.10;0.10;;;20.70;99.90;;;;;;5084751;28;20028;-78
2023/08/24 02:01:31;;;;;;;0.15;0.15;;;21.60;99.90;;;;;;5083581;28;20027;-80
2023/08/24 02:03:59;;;;;;;0.10;0.10;;;20.80;99.90;;;;;;5084102;28;20493;-76
2023/08/24 02:06:26;;;;;;;0.93;0.93;;;19.40;99.90;;;;;;5084670;28;20035;-79
2023/08/24 02:08:52;;;;;;;0.10;0.10;;;;;;;;;;5085024;28;20035;-85
2023/08/24 02:11:18;;;;;;;1.10;0.90;;;21.00;99.90;;;;;;5082751;28;20095;-77
2023/08/24 02:13:44;;;;;;;0.10;0.10;;;21.10;99.90;;;;;;5082946;28;20026;-77
2023/08/24 02:16:12;;;;;;;0.10;0.10;;;21.30;99.90;;;;;;5082580;28;20032;-78
2023/08/24 02:18:38;;;;;;;0.13;0.13;;;21.50;99.90;;;;;;5083138;28;20028;-78
2023/08/24 02:21:11;;;;;;;0.28;0.28;;;21.50;99.90;;;;;;5083612;28;20512;-77
2023/08/24 02:23:38;;;;;;;1.85;1.75;;;21.60;99.90;;;;;;5084035;28;20034;-77
2023/08/24 02:26:04;;;;;;;7.95;7.63;;;21.70;99.90;;;;;;5084298;28;20018;-80
2023/08/24 02:28:30;;;;;;;0.10;0.10;;;21.60;99.90;;;;;;5083694;28;20024;-77
2023/08/24 02:31:01;;;;;;;0.40;0.40;;;21.30;99.90;;;;;;5082936;28;20023;-79
2023/08/24 02:33:28;;;;;;;33.67;2.75;;;21.20;99.90;;;;;;5064942;28;20020;-83
2023/08/24 02:35:54;;;;;;;0.98;0.75;;;21.20;99.90;;;;;;5064816;28;20111;-78
2023/08/24 02:38:20;;;;;;;0.30;0.30;;;;;;;;;;5083413;28;20044;-77
2023/08/24 02:40:46;;;;;;;0.17;0.17;;;21.10;99.90;;;;;;5083191;28;20016;-76
2023/08/24 02:43:12;;;;;;;0.20;0.20;;;21.30;99.90;;;;;;5083940;28;20020;-77
2023/08/24 02:45:39;;;;;;;0.10;0.10;;;21.20;99.90;;;;;;5083041;28;20305;-78
2023/08/24 02:48:05;;;;;;;0.10;0.10;;;21.30;99.90;;;;;;5084149;28;20236;-79
2023/08/24 02:50:31;;;;;;;0.77;0.77;;;;;;;;;;5083283;28;20022;-78
2023/08/24 02:53:01;;;;;;;0.10;0.10;;;21.60;99.90;;;;;;5082639;28;20039;-83
2023/08/24 02:55:27;;;;;;;0.85;0.85;;;22.00;99.90;;;;;;5062947;28;20060;-76
2023/08/24 02:57:53;;;;;;;3.35;3.20;;;21.60;99.90;;;;;;5082672;28;20071;-81
2023/08/24 03:00:19;;;;;;;0.20;0.20;;;21.20;99.90;;;;;;5081930;28;20026;-79
2023/08/24 03:02:45;;;;;;;1.75;1.65;;;21.60;99.90;;;;;;5081931;28;20027;-77
2023/08/24 03:05:12;;;;;;;3.17;1.50;;;21.30;99.90;;;;;;5065885;28;20078;-77
2023/08/24 03:07:38;;;;;;;0.22;0.22;;;21.50;99.90;;;;;;5064570;28;20490;-77
2023/08/24 03:10:05;;;;;;;0.10;0.10;;;21.30;99.90;;;;;;5082187;28;20045;-77
2023/08/24 03:12:31;;;;;;;0.50;0.50;;;20.90;99.90;;;;;;5081342;28;20054;-78
2023/08/24 03:14:57;;;;;;;0.20;0.20;;;20.90;99.90;;;;;;5080250;28;20270;-78
2023/08/24 03:17:23;;;;;;;1.85;1.23;;;20.90;99.90;;;;;;5082372;28;20039;-78
2023/08/24 03:19:49;;;;;;;0.10;0.10;;;21.00;99.90;;;;;;5063615;28;20026;-82
2023/08/24 03:22:15;;;;;;;0.10;0.10;;;20.90;99.90;;;;;;5082197;28;20031;-76
2023/08/24 03:24:41;;;;;;;0.20;0.20;;;20.90;99.90;;;;;;5064713;28;20528;-77
2023/08/24 03:27:10;;;;;;;0.35;0.35;;;20.80;99.90;;;;;;5082611;28;20036;-78
2023/08/24 03:29:36;;;;;;;0.60;0.60;;;18.70;99.90;;;;;;5082235;28;20012;-77
2023/08/24 03:32:02;;;;;;;0.10;0.10;;;20.50;99.90;;;;;;5083598;28;20027;-76
2023/08/24 03:34:29;;;;;;;1.17;1.08;;;20.40;99.90;;;;;;5082786;28;20020;-78
2023/08/24 03:36:55;;;;;;;1.45;1.38;;;20.00;99.90;;;;;;5082254;28;20028;-79
2023/08/24 03:39:21;;;;;;;1.08;0.63;;;19.80;99.90;;;;;;5082940;28;20020;-75
2023/08/24 03:41:48;;;;;;;0.63;0.63;;;;;;;;;;5082832;28;20024;-79
2023/08/24 03:44:14;;;;;;;0.00;0.00;;;19.80;99.90;;;;;;5081193;28;20012;-75
2023/08/24 03:46:40;;;;;;;0.43;0.43;;;19.90;99.90;;;;;;5082503;28;20018;-76
2023/08/24 03:49:09;;;;;;;0.17;0.17;;;19.40;99.90;;;;;;5081087;28;20024;-75
2023/08/24 03:51:35;;;;;;;0.75;0.60;;;20.50;99.90;;;;;;5081156;28;20020;-77
2023/08/24 03:54:01;;;;;;;0.10;0.10;;;20.60;99.90;;;;;;5081400;28;20028;-76
2023/08/24 03:56:27;;;;;;;0.43;0.43;;;20.40;99.90;;;;;;5081475;28;20051;-76
2023/08/24 03:58:53;;;;;;;0.20;0.20;;;19.10;99.90;;;;;;5081566;28;20454;-82
2023/08/24 04:01:19;;;;;;;0.93;0.93;;;20.20;99.90;;;;;;5081438;28;20023;-76
2023/08/24 04:03:45;;;;;;;1.92;1.83;;;18.50;99.90;;;;;;5081468;28;20031;-85
2023/08/24 04:06:11;;;;;;;0.10;0.10;;;20.30;99.90;;;;;;5080626;28;20012;-77
2023/08/24 04:08:37;;;;;;;0.40;0.40;;;19.80;99.90;;;;;;5062621;28;20119;-81
2023/08/24 04:11:03;;;;;;;0.47;0.47;;;20.50;99.90;;;;;;5081885;28;20016;-76
2023/08/24 04:13:30;;;;;;;0.10;0.10;;;20.30;99.90;;;;;;5081205;28;20121;-78
2023/08/24 04:15:56;;;;;;;1.75;1.60;;;20.40;99.90;;;;;;5081197;28;20464;-76
2023/08/24 04:18:22;;;;;;;0.10;0.10;;;20.60;99.90;;;;;;5063451;28;20055;-76
2023/08/24 04:20:48;;;;;;;0.10;0.10;;;19.80;99.90;;;;;;5062384;28;20032;-76
2023/08/24 04:23:14;;;;;;;0.10;0.10;;;18.40;99.90;;;;;;5062777;28;20032;-80
2023/08/24 04:25:41;;;;;;;0.50;0.50;;;20.30;99.90;;;;;;5063125;28;20028;-76
2023/08/24 04:28:07;;;;;;;0.20;0.20;;;20.60;99.90;;;;;;5061906;28;20028;-76
2023/08/24 04:30:33;;;;;;;0.55;0.50;;;22.20;99.90;;;;;;5081137;28;20046;-77
2023/08/24 04:32:59;;;;;;;1.75;1.65;;;20.90;99.90;;;;;;5062995;28;20437;-78
2023/08/24 04:35:28;;;;;;;0.10;0.10;;;21.00;99.90;;;;;;5062999;28;20085;-76
2023/08/24 04:37:55;;;;;;;2.72;1.48;;;21.60;99.90;;;;;;5081711;28;20034;-77
2023/08/24 04:40:21;;;;;;;0.30;0.30;;;20.90;99.90;;;;;;5063265;28;20119;-76
2023/08/24 04:42:47;;;;;;;0.10;0.10;;;21.30;99.90;;;;;;5080561;28;20020;-76
2023/08/24 04:45:14;;;;;;;2.38;1.75;;;21.10;99.90;;;;;;5079505;28;20022;-77
2023/08/24 04:47:40;;;;;;;0.20;0.20;;;21.00;99.90;;;;;;5079205;28;20736;-77
2023/08/24 04:50:07;;;;;;;0.85;0.85;;;21.10;99.90;;;;;;5081351;28;20024;-77
2023/08/24 04:52:34;;;;;;;3.13;1.77;;;21.10;99.90;;;;;;5063250;28;20421;-78
2023/08/24 04:55:00;;;;;;;1.35;1.00;;;21.50;99.90;;;;;;5080489;28;20138;-76
2023/08/24 04:57:27;;;;;;;0.25;0.25;;;;;;;;;;5080221;28;20051;-76
2023/08/24 04:59:53;;;;;;;0.55;0.55;;;21.50;99.90;;;;;;5080431;28;20254;-76
2023/08/24 05:02:19;;;;;;;4.53;0.85;;;21.60;99.90;;;;;;5078729;28;20650;-77
2023/08/24 05:04:48;;;;;;;0.45;0.45;;;21.80;99.90;;;;;;5079290;28;20173;-75
2023/08/24 05:07:14;;;;;;;0.45;0.45;;;22.00;99.90;;;;;;5080533;28;20304;-76
2023/08/24 05:09:41;;;;;;;0.85;0.85;;;21.90;99.90;;;;;;5080550;28;20039;-76
2023/08/24 05:12:07;;;;;;;0.30;0.30;;;22.00;99.90;;;;;;5062276;28;20023;-75
2023/08/24 05:14:34;;;;;;;0.17;0.17;;;22.00;99.90;;;;;;5080343;28;20103;-76
2023/08/24 05:17:00;;;;;;;0.10;0.10;;;21.80;99.90;;;;;;5080161;28;20053;-80
2023/08/24 05:19:28;;;;;;;0.95;0.95;;;21.80;99.90;;;;;;5080600;28;20012;-77
2023/08/24 05:21:54;;;;;;;0.60;0.60;;;22.00;99.90;;;;;;5081176;28;20020;-76
2023/08/24 05:24:20;;;;;;;0.57;0.57;;;22.10;99.90;;;;;;5079839;28;20024;-76
2023/08/24 05:26:46;;;;;;;1.85;1.60;;;22.00;99.90;;;;;;5068132;28;20714;-86
2023/08/24 05:29:12;;;;;;;0.13;0.13;;;22.40;99.90;;;;;;5079956;28;20025;-75
2023/08/24 05:31:38;;;;;;;0.22;0.22;;;21.40;99.90;;;;;;5079868;28;20408;-76
2023/08/24 05:34:05;;;;;;;0.35;0.35;;;21.90;99.90;;;;;;5079623;28;20036;-77
2023/08/24 05:36:30;;;;;;;0.43;0.43;;;22.00;99.90;;;;;;5061606;28;20066;-76
2023/08/24 05:38:56;;;;;;;4.68;2.70;;;21.90;99.90;;;;;;5062136;28;20031;-75
2023/08/24 05:41:23;;;;;;;1.48;0.90;;;22.00;99.90;;;;;;5061172;28;20465;-76
2023/08/24 05:43:48;;;;;;;0.22;0.22;;;21.80;99.90;;;;;;5060860;28;20127;-79
2023/08/24 05:46:14;;;;;;;0.05;0.05;;;21.50;99.90;;;;;;5060456;28;20103;-85
2023/08/24 05:48:40;;;;;;;0.10;0.10;;;21.40;99.90;;;;;;5077747;28;20027;-81
2023/08/24 05:51:08;;;;;;;0.63;0.63;;;21.30;99.90;;;;;;5081265;28;20020;-78
2023/08/24 05:53:34;;;;;;;0.57;0.45;;;21.40;99.90;;;;;;5079439;28;20055;-76
2023/08/24 05:56:01;;;;;;;5.05;3.88;;;21.50;99.90;;;;;;5060850;28;20087;-76
2023/08/24 05:58:27;;;;;;;0.47;0.47;;;21.50;99.90;;;;;;5074488;28;20721;-76
2023/08/24 06:00:59;;;;;;;0.32;0.30;;;21.50;99.90;;;;;;5058029;28;20714;-80
2023/08/24 06:03:26;;;;;;;1.58;1.48;;;21.40;99.90;;;;;;5057937;28;20509;-76
2023/08/24 06:05:52;;;;;;;0.32;0.32;;;21.90;99.90;;;;;;5059703;28;20009;-75
2023/08/24 06:08:18;;;;;;;1.70;1.60;;;23.70;99.90;;;;;;5061861;28;20024;-83
2023/08/24 06:10:43;;;;;;;1.45;1.35;;;22.00;99.90;;;;;;5061689;28;20027;-80
2023/08/24 06:13:09;;;;;;;0.10;0.10;;;22.20;99.90;;;;;;5061264;28;20020;-77
2023/08/24 06:15:35;;;;;;;0.10;0.10;;;22.30;99.90;;;;;;5061634;28;20024;-75
2023/08/24 06:18:04;;;;;;;9.02;8.55;;;22.50;99.90;;;;;;5062473;28;20794;-75
2023/08/24 06:20:30;;;;;;;0.10;0.10;;;22.70;99.90;;;;;;5061494;28;20102;-78
2023/08/24 06:22:56;;;;;;;0.40;0.40;;;22.60;99.90;;;;;;5062442;28;20044;-79
2023/08/24 06:25:23;;;;;;;0.22;0.22;;;22.50;99.90;;;;;;5061258;28;20020;-81
2023/08/24 06:27:49;;;;;;;1.05;1.05;;;22.80;99.90;;;;;;5060668;28;20029;-79
2023/08/24 06:30:14;;;;;;;0.10;0.10;;;23.00;99.90;;;;;;5061669;28;20043;-80
2023/08/24 06:32:40;;;;;;;0.40;0.40;;;23.10;99.90;;;;;;5060862;28;20277;-78
2023/08/24 06:35:06;;;;;;;0.10;0.10;;;23.30;99.90;;;;;;5077476;28;20746;-76
2023/08/24 06:37:32;;;;;;;0.10;0.10;;;23.30;99.90;;;;;;5062030;28;20059;-76
2023/08/24 06:39:58;;;;;;;0.17;0.17;;;23.30;99.90;;;;;;5062242;28;20331;-75
2023/08/24 06:42:25;;;;;;;0.75;0.75;;;23.40;99.90;;;;;;5061556;28;20107;-80
2023/08/24 06:44:51;;;;;;;1.25;1.15;;;23.40;99.90;;;;;;5061096;28;20005;-76
2023/08/24 06:47:17;;;;;;;1.45;0.95;;;23.50;99.90;;;;;;5060198;28;20044;-80
2023/08/24 06:49:42;;;;;;;1.38;1.23;;;23.60;99.90;;;;;;5061745;28;20025;-82
2023/08/24 06:52:09;;;;;;;0.10;0.10;;;23.60;99.90;;;;;;5078604;28;20012;-77
2023/08/24 06:54:43;;;;;;;1.30;1.13;;;20.60;99.90;;;;;;5064350;28;20033;-82
2023/08/24 06:57:15;;;;;;;0.75;0.75;;;23.70;99.90;;;;;;5069562;28;20105;-80
2023/08/24 06:59:41;;;;;;;0.80;0.77;;;23.60;99.90;;;;;;5081380;28;20013;-77
2023/08/24 07:02:07;;;;;;;2.50;0.63;;;23.70;99.90;;;;;;5081490;28;20172;-90
2023/08/24 07:04:36;;;;;;;34.00;1.42;;;24.30;99.90;;;;;;5081026;28;20034;-79
2023/08/24 07:07:05;;;;;;;1.25;0.95;;;23.80;99.90;;;;;;5063999;28;20020;-77
2023/08/24 07:09:32;;;;;;;0.45;0.45;;;23.80;99.90;;;;;;5081414;28;20020;-79
2023/08/24 07:11:58;;;;;;;0.00;0.00;;;23.80;99.90;;;;;;5081168;28;20468;-77
2023/08/24 07:14:24;;;;;;;0.68;0.68;;;23.80;99.90;;;;;;5081991;28;20016;-78
2023/08/24 07:16:50;;;;;;;1.30;1.20;;;23.90;99.90;;;;;;5082242;28;20046;-77
2023/08/24 07:19:16;;;;;;;0.65;0.65;;;24.00;99.90;;;;;;5080969;28;20098;-81
2023/08/24 07:21:42;;;;;;;0.15;0.15;;;24.40;99.90;;;;;;5080237;28;20043;-78
2023/08/24 07:24:08;;;;;;;0.63;0.63;;;24.50;99.90;;;;;;5063979;28;20217;-78
2023/08/24 07:26:35;;;;;;;1.58;1.42;;;24.40;99.90;;;;;;5082378;28;20031;-80
2023/08/24 07:29:01;;;;;;;1.27;0.82;;;25.00;99.90;;;;;;5082719;28;20091;-83
2023/08/24 07:31:27;;;;;;;0.20;0.20;;;24.60;99.90;;;;;;5063509;28;20643;-78
2023/08/24 07:33:52;;;;;;;1.25;1.17;;;24.60;99.90;;;;;;5064001;28;20077;-79
2023/08/24 07:36:19;;;;;;;0.73;0.52;;;24.80;99.90;;;;;;5081614;28;20021;-78
2023/08/24 07:38:51;;;;;;;0.10;0.10;;;24.80;99.90;;;;;;5080736;28;20016;-77
2023/08/24 07:41:18;;;;;;;1.10;0.90;;;25.10;99.90;;;;;;5064114;28;20070;-79
2023/08/24 07:43:44;;;;;;;2.08;1.08;;;25.00;99.90;;;;;;5082543;28;20573;-83
2023/08/24 07:46:10;;;;;;;0.10;0.10;;;25.00;99.90;;;;;;5081799;28;20331;-78
2023/08/24 07:48:36;;;;;;;1.52;1.42;;;25.10;99.90;;;;;;5062789;28;20371;-77
2023/08/24 07:51:02;;;;;;;0.10;0.10;;;25.30;99.90;;;;;;5079734;28;20119;-77
2023/08/24 07:53:29;;;;;;;0.10;0.10;;;25.30;99.90;;;;;;5062162;28;20429;-83
2023/08/24 07:55:57;;;;;;;0.52;0.52;;;25.40;99.90;;;;;;5081599;28;20066;-78
2023/08/24 07:58:24;;;;;;;0.75;0.75;;;25.50;99.90;;;;;;5081506;28;20047;-78
2023/08/24 08:00:51;;;;;;;1.42;1.33;;;25.80;99.90;;;;;;5063195;28;20447;-77
2023/08/24 08:03:20;;;;;;;1.10;0.90;;;25.90;99.90;;;;;;5080933;28;20024;-77
2023/08/24 08:05:47;;;;;;;0.10;0.10;;;25.90;99.90;;;;;;5063882;28;20173;-77
2023/08/24 08:08:19;;;;;;;0.17;0.17;;;26.10;99.90;;;;;;5082369;28;20032;-76
2023/08/24 08:10:45;;;;;;;0.30;0.30;;;26.30;99.90;;;;;;5081193;28;20639;-77
2023/08/24 08:13:14;;;;;;;1.05;1.00;;;26.50;99.90;;;;;;5080914;28;20501;-78
2023/08/24 08:15:40;;;;;;;0.10;0.10;;;25.80;99.90;;;;;;5080596;28;20536;-78
2023/08/24 08:18:06;;;;;;;1.42;1.33;;;27.40;99.90;;;;;;5080358;28;20075;-79
2023/08/24 08:20:32;;;;;;;1.05;0.98;;;26.80;99.90;;;;;;5080814;28;20514;-80
2023/08/24 08:22:58;;;;;;;0.38;0.38;;;26.80;99.90;;;;;;5080426;28;20100;-77
2023/08/24 08:25:25;;;;;;;0.30;0.30;;;26.70;99.90;;;;;;5080432;28;20099;-77
2023/08/24 08:27:54;;;;;;;1.02;0.68;;;27.00;99.90;;;;;;5080478;28;20253;-76
2023/08/24 08:30:20;;;;;;;0.20;0.20;;;27.10;99.90;;;;;;5080988;28;20557;-79
2023/08/24 08:32:46;;;;;;;0.68;0.68;;;27.20;99.90;;;;;;5062835;28;20288;-84
2023/08/24 08:35:12;;;;;;;0.20;0.20;;;27.40;99.90;;;;;;5079950;28;20300;-79
2023/08/24 08:37:38;;;;;;;0.80;0.80;;;27.50;99.90;;;;;;5080825;28;20119;-85
2023/08/24 08:40:09;;;;;;;0.82;0.82;;;27.50;99.90;;;;;;5080324;28;20020;-77
2023/08/24 08:42:36;;;;;;;0.47;0.45;;;27.70;99.90;;;;;;5081605;28;20020;-78
2023/08/24 08:45:08;;;;;;;1.90;1.40;;;27.60;99.90;;;;;;5061579;28;20028;-80
2023/08/24 08:47:34;;;;;;;0.88;0.77;;;;;;;;;;5080629;28;20017;-77
2023/08/24 08:50:03;;;;;;;0.52;0.52;;;27.60;99.90;;;;;;5079341;28;20033;-80
2023/08/24 08:52:33;;;;;;;1.13;1.00;;;28.00;99.90;;;;;;5080962;28;20016;-79
2023/08/24 08:55:00;;;;;;;0.45;0.43;;;27.90;99.90;;;;;;5079871;28;20016;-77
2023/08/24 08:57:27;;;;;;;0.17;0.17;;;;;;;;;;5079912;28;20094;-79
2023/08/24 08:59:53;;;;;;;0.45;0.45;;;;;;;;;;5078797;28;20027;-78
2023/08/24 09:02:20;;;;;;;1.17;0.73;;;28.10;99.90;;;;;;5061051;28;20059;-77
2023/08/24 09:04:47;;;;;;;0.52;0.40;;;28.20;99.90;;;;;;5079971;28;20169;-77
2023/08/24 09:07:16;;;;;;;0.43;0.43;;;28.30;99.90;;;;;;5077739;28;20119;-78
2023/08/24 09:09:43;;;;;;;1.17;1.08;;;28.20;99.90;;;;;;5078684;28;20019;-81
2023/08/24 09:12:09;;;;;;;2.92;0.30;;;28.20;99.90;;;;;;5078975;28;20054;-77
2023/08/24 09:14:36;;;;;;;1.27;1.20;;;28.30;99.90;;;;;;5061051;28;20012;-79
2023/08/24 09:17:03;;;;;;;1.15;0.90;;;28.40;99.90;;;;;;5079089;28;20032;-77
2023/08/24 09:19:40;;;;;;;0.50;0.50;;;28.70;99.90;;;;;;5080725;28;20103;-79
2023/08/24 09:22:07;;;;;;;2.47;1.40;;;28.60;99.90;;;;;;5064958;28;20028;-76
2023/08/24 09:24:35;;;;;;;0.88;0.88;;;29.10;99.90;;;;;;5080809;28;20016;-76
2023/08/24 09:27:18;;;;;;;2.58;2.38;;;29.20;99.90;;;;;;5080642;28;20034;-76
2023/08/24 09:29:50;;;;;;;2.88;1.38;;;29.20;99.90;;;;;;5061891;28;20111;-87
2023/08/24 09:32:22;;;;;;;0.43;0.38;;;29.60;99.90;;;;;;5080065;28;20032;-77
2023/08/24 09:34:48;;;;;;;2.30;1.17;;;29.70;99.90;;;;;;5061007;28;20085;-77
2023/08/24 09:37:15;;;;;;;1.45;1.35;;;29.80;99.90;;;;;;5078679;28;20127;-81
2023/08/24 09:39:45;;;;;;;1.92;1.75;;;30.80;99.90;;;;;;5079045;28;20246;-76
2023/08/24 09:42:12;;;;;;;0.52;0.50;;;30.60;99.90;;;;;;5080455;28;20090;-77
2023/08/24 09:44:38;;;;;;;1.30;1.20;;;30.50;99.90;;;;;;5064618;28;20115;-77
2023/08/24 09:47:13;;;;;;;0.90;0.63;;;31.20;99.90;;;;;;5083990;28;20020;-81
2023/08/24 09:49:39;;;;;;;1.75;0.80;;;31.00;99.90;;;;;;5082660;28;20054;-78
2023/08/24 09:52:11;;;;;;;2.95;2.10;;;31.00;99.90;;;;;;5063927;28;20051;-76
2023/08/24 09:54:43;;;;;;;2.20;1.75;;;30.90;99.90;;;;;;5083054;28;20054;-76
2023/08/24 09:57:10;;;;;;;4.20;2.53;;;31.20;99.90;;;;;;5084466;28;20044;-78
2023/08/24 09:59:39;;;;;;;1.60;1.27;;;30.50;99.90;;;;;;5081263;28;20028;-77
2023/08/24 10:02:15;;;;;;;0.73;0.73;;;30.30;99.90;;;;;;5083413;28;20016;-77
2023/08/24 10:04:44;;;;;;;2.00;0.95;;;30.20;99.90;;;;;;5081248;28;20081;-76
2023/08/24 10:07:14;;;;;;;2.75;2.25;;;29.90;99.90;;;;;;5082709;28;20019;-77
2023/08/24 10:09:45;;;;;;;1.27;1.17;;;29.60;99.90;;;;;;5080483;28;20012;-78
2023/08/24 10:12:14;;;;;;;1.60;1.13;;;29.30;99.90;;;;;;5064040;28;20027;-78
2023/08/24 10:15:02;;;;;;;3.40;1.95;;;28.40;99.90;;;;;;5080627;28;20044;-77
2023/08/24 10:17:29;;;;;;;1.40;1.17;;;28.90;99.90;;;;;;5081004;28;20046;-82
2023/08/24 10:19:56;;;;;;;1.38;1.27;;;28.60;99.90;;;;;;5082472;28;20126;-77
2023/08/24 10:22:23;;;;;;;2.08;1.90;;;28.40;99.90;;;;;;5064316;28;20115;-78
2023/08/24 10:24:51;;;;;;;0.50;0.50;;;25.90;99.90;;;;;;5081160;28;20016;-76
2023/08/24 10:27:18;;;;;;;2.83;1.52;;;28.60;99.90;;;;;;5080671;28;20214;-76
2023/08/24 10:29:44;;;;;;;2.33;2.13;;;28.50;99.90;;;;;;5080786;28;20627;-78
2023/08/24 10:32:11;;;;;;;0.60;0.60;;;28.60;99.90;;;;;;5081649;28;20602;-76
2023/08/24 10:34:38;;;;;;;1.17;1.05;;;25.40;99.90;;;;;;5065246;28;20027;-78
2023/08/24 10:37:09;;;;;;;2.25;1.60;;;28.10;99.90;;;;;;5081540;28;20051;-78
2023/08/24 10:39:38;;;;;;;1.67;1.58;;;28.10;99.90;;;;;;5082580;28;20549;-79
2023/08/24 10:42:04;;;;;;;1.15;0.93;;;28.90;99.90;;;;;;5081505;28;20043;-79
2023/08/24 10:44:37;;;;;;;1.55;1.15;;;28.60;99.90;;;;;;5081754;28;20534;-79
2023/08/24 10:47:14;;;;;;;0.68;0.65;;;28.90;99.90;;;;;;5064884;28;20520;-81
2023/08/24 10:49:56;;;;;;;0.57;0.57;;;29.40;99.90;;;;;;5064737;28;20054;-78
2023/08/24 10:52:28;;;;;;;1.30;1.23;;;29.80;99.90;;;;;;5062951;28;20055;-77
2023/08/24 10:54:54;;;;;;;2.17;0.73;;;29.80;99.90;;;;;;5081482;28;20105;-77
2023/08/24 10:57:24;;;;;;;2.05;1.95;;;30.60;99.90;;;;;;5062927;28;20595;-77
2023/08/24 11:00:10;;;;;;;2.60;1.20;;;30.10;99.90;;;;;;5080685;28;20028;-78
2023/08/24 11:02:46;;;;;;;0.98;0.73;;;31.40;99.90;;;;;;5080166;28;20020;-82
2023/08/24 11:05:35;;;;;;;0.93;0.93;;;31.70;99.90;;;;;;5080775;28;20047;-76
2023/08/24 11:08:05;;;;;;;1.45;1.35;;;31.90;99.90;;;;;;5080772;28;20092;-77
2023/08/24 11:10:48;;;;;;;1.88;1.25;;;32.00;99.90;;;;;;5080259;28;20023;-78
2023/08/24 11:13:16;;;;;;;1.02;0.93;;;32.10;99.90;;;;;;5061655;28;20541;-79
2023/08/24 11:15:57;;;;;;;4.75;1.98;;;32.10;99.90;;;;;;5079194;28;20112;-76
2023/08/24 11:18:29;;;;;;;0.85;0.85;;;32.10;99.50;;;;;;5080514;28;20529;-76
2023/08/24 11:21:05;;;;;;;0.95;0.68;;;32.30;99.20;;;;;;5080315;28;20024;-77
2023/08/24 11:23:32;;;;;;;1.52;0.98;;;32.70;99.40;;;;;;5079142;28;20094;-77
2023/08/24 11:25:59;;;;;;;1.45;1.20;;;33.00;99.20;;;;;;5078825;28;20015;-81
2023/08/24 11:28:27;;;;;;;2.10;1.50;;;33.20;98.80;;;;;;5080153;28;20036;-81
2023/08/24 11:30:54;;;;;;;2.85;1.00;;;34.00;99.00;;;;;;5080189;28;20638;-77
2023/08/24 11:33:33;;;;;;;2.63;1.27;;;33.40;98.70;;;;;;5080302;28;20028;-84
2023/08/24 11:36:01;;;;;;;2.03;1.92;;;33.70;97.70;;;;;;5080190;28;20020;-77
2023/08/24 11:38:40;;;;;;;2.42;1.70;;;33.60;97.50;;;;;;5080855;28;20016;-77
2023/08/24 11:41:21;;;;;;;3.85;2.15;;;33.50;97.50;;;;;;5079885;28;20111;-76
2023/08/24 11:43:48;;;;;;;2.25;2.00;;;33.60;97.80;;;;;;5063100;28;20016;-77
2023/08/24 11:46:16;;;;;;;3.03;1.98;;;33.60;97.70;;;;;;5062608;28;20024;-77
2023/08/24 11:48:43;;;;;;;2.05;1.80;;;33.60;96.90;;;;;;5080124;28;20020;-77
2023/08/24 11:51:12;;;;;;;2.05;1.73;;;33.40;96.80;;;;;;5079895;28;20103;-81
2023/08/24 11:53:46;;;;;;;3.22;1.15;;;33.60;96.70;;;;;;5080518;28;20285;-77
2023/08/24 11:56:13;;;;;;;2.05;1.58;;;33.80;96.50;;;;;;5079565;28;20116;-80
2023/08/24 11:58:46;;;;;;;3.50;1.35;;;34.20;95.90;;;;;;5078949;28;20327;-81
2023/08/24 12:01:13;;;;;;;3.63;3.33;;;34.20;95.00;;;;;;5080098;28;20024;-77
2023/08/24 12:03:40;;;;;;;1.63;1.05;;;34.50;94.90;;;;;;5061174;28;20103;-77
2023/08/24 12:06:14;;;;;;;1.75;1.42;;;34.70;93.40;;;;;;5078883;28;20027;-76
2023/08/24 12:08:50;;;;;;;1.15;1.08;;;35.20;93.30;;;;;;5080149;28;20021;-83
2023/08/24 12:11:24;;;;;;;0.70;0.70;;;35.10;92.90;;;;;;5080520;28;20012;-78
2023/08/24 12:13:53;;;;;;;1.45;0.85;;;35.00;92.90;;;;;;5061432;28;20228;-78
2023/08/24 12:16:20;;;;;;;1.98;1.77;;;34.00;93.50;;;;;;5061656;28;20555;-85
2023/08/24 12:18:48;;;;;;;3.20;1.20;;;33.90;93.90;;;;;;5079969;28;20034;-77
2023/08/24 12:21:14;;;;;;;2.63;2.03;;;33.60;93.30;;;;;;5079204;28;20020;-78
2023/08/24 12:23:40;;;;;;;3.55;1.95;;;33.00;94.80;;;;;;5079350;28;20019;-77
2023/08/24 12:26:07;;;;;;;2.10;0.63;;;30.40;94.80;;;;;;5061761;28;20023;-79
2023/08/24 12:28:34;;;;;;;0.20;0.17;;;30.00;95.70;;;;;;5060868;28;20716;-79
2023/08/24 12:31:03;;;;;;;1.02;0.93;;;28.60;97.80;;;;;;5079549;28;20818;-80
2023/08/24 12:33:33;;;;;;;0.68;0.47;;;26.30;99.90;;;;;;5078989;28;20050;-79
2023/08/24 12:35:59;;;;;;;1.17;0.90;;;26.20;99.90;;;;;;5061273;28;20032;-85
2023/08/24 12:38:28;;;;;;;0.08;0.03;;;25.70;99.90;;;;;;5080848;28;20538;-76
2023/08/24 12:40:54;;;;;;;1.02;0.52;;;25.00;99.90;;;;;;5060868;28;20023;-76
2023/08/24 12:43:20;;;;;;;0.20;0.20;;;24.20;99.90;;;;;;5078916;28;20051;-76
2023/08/24 12:45:46;;;;;;;2.42;0.80;;;23.60;99.90;;;;;;5061181;28;20020;-76
2023/08/24 12:48:12;;;;;;;0.88;0.80;;;23.30;99.90;;;;;;5060310;28;20023;-80
2023/08/24 12:50:38;;;;;;;0.40;0.40;;;23.40;99.90;;;;;;5079280;28;20596;-78
2023/08/24 12:53:08;;;;;;;0.20;0.20;;;;;;;;;;5061966;28;20035;-78
2023/08/24 12:55:38;;;;;;;0.25;0.20;;;22.70;99.90;;;;;;5061010;28;20022;-78